sensor_id;sensor_type;location;lat;lon;timestamp;pressure;altitude;pressure_sealevel;temperature;humidity
19005;BME280;9635;52.078;8.648;2022-12-18T00:00:01;101794.34;;;-6.71;68.41
19005;BME280;9635;52.078;8.648;2022-12-18T00:05:14;101792.66;;;-6.66;67.97
19005;BME280;9635;52.078;8.648;2022-12-18T00:10:17;101800.38;;;-6.77;68.11
19005;BME280;9635;52.078;8.648;2022-12-18T00:15:24;101787.41;;;-6.67;67.79
19005;BME280;9635;52.078;8.648;2022-12-18T00:20:26;101794.31;;;-6.72;68.15
19005;BME280;9635;52.078;8.648;2022-12-18T00:25:32;101799.53;;;-6.74;68.04
19005;BME280;9635;52.078;8.648;2022-12-18T00:30:36;101810.03;;;-6.71;67.89
19005;BME280;9635;52.078;8.648;2022-12-18T00:35:39;101823.09;;;-6.69;67.75
19005;BME280;9635;52.078;8.648;2022-12-18T00:40:44;101804.00;;;-6.64;67.51
19005;BME280;9635;52.078;8.648;2022-12-18T00:45:48;101798.59;;;-6.78;67.55
19005;BME280;9635;52.078;8.648;2022-12-18T00:50:51;101800.25;;;-6.84;68.15
19005;BME280;9635;52.078;8.648;2022-12-18T00:55:54;101793.47;;;-6.70;67.59
19005;BME280;9635;52.078;8.648;2022-12-18T01:00:59;101794.16;;;-6.83;67.99
19005;BME280;9635;52.078;8.648;2022-12-18T01:06:05;101789.72;;;-6.90;67.99
19005;BME280;9635;52.078;8.648;2022-12-18T01:11:10;101795.97;;;-6.79;67.96
19005;BME280;9635;52.078;8.648;2022-12-18T01:16:17;101792.31;;;-6.92;67.81
19005;BME280;9635;52.078;8.648;2022-12-18T01:21:21;101794.09;;;-6.91;67.66
19005;BME280;9635;52.078;8.648;2022-12-18T01:26:25;101791.22;;;-7.08;68.03
19005;BME280;9635;52.078;8.648;2022-12-18T01:31:33;101790.56;;;-6.93;67.73
19005;BME280;9635;52.078;8.648;2022-12-18T01:36:38;101793.09;;;-6.98;67.51
19005;BME280;9635;52.078;8.648;2022-12-18T01:41:42;101799.97;;;-7.06;67.83
19005;BME280;9635;52.078;8.648;2022-12-18T01:47:04;101803.47;;;-7.02;68.08
19005;BME280;9635;52.078;8.648;2022-12-18T01:52:07;101812.16;;;-7.06;68.01
19005;BME280;9635;52.078;8.648;2022-12-18T01:57:11;101805.19;;;-7.06;68.20
19005;BME280;9635;52.078;8.648;2022-12-18T02:02:16;101797.31;;;-7.09;67.86
19005;BME280;9635;52.078;8.648;2022-12-18T02:07:26;101789.47;;;-7.09;67.46
19005;BME280;9635;52.078;8.648;2022-12-18T02:12:42;101805.97;;;-7.13;67.82
19005;BME280;9635;52.078;8.648;2022-12-18T02:17:54;101795.53;;;-7.13;67.83
19005;BME280;9635;52.078;8.648;2022-12-18T02:23:08;101806.88;;;-7.08;67.69
19005;BME280;9635;52.078;8.648;2022-12-18T02:28:15;101805.06;;;-7.15;67.69
19005;BME280;9635;52.078;8.648;2022-12-18T02:33:21;101804.97;;;-7.21;67.79
19005;BME280;9635;52.078;8.648;2022-12-18T02:38:31;101794.63;;;-7.13;67.80
19005;BME280;9635;52.078;8.648;2022-12-18T02:43:47;101778.22;;;-7.03;68.09
19005;BME280;9635;52.078;8.648;2022-12-18T02:48:57;101788.81;;;-6.92;67.98
19005;BME280;9635;52.078;8.648;2022-12-18T02:54:09;101796.59;;;-6.99;68.05
19005;BME280;9635;52.078;8.648;2022-12-18T02:59:19;101797.38;;;-7.03;67.69
19005;BME280;9635;52.078;8.648;2022-12-18T03:04:32;101793.88;;;-7.06;67.90
19005;BME280;9635;52.078;8.648;2022-12-18T03:09:45;101796.50;;;-7.03;67.44
19005;BME280;9635;52.078;8.648;2022-12-18T03:14:56;101817.38;;;-7.06;67.82
19005;BME280;9635;52.078;8.648;2022-12-18T03:20:05;101805.03;;;-7.16;67.89
19005;BME280;9635;52.078;8.648;2022-12-18T03:25:13;101792.91;;;-7.13;68.14
19005;BME280;9635;52.078;8.648;2022-12-18T03:30:19;101799.75;;;-7.20;68.28
19005;BME280;9635;52.078;8.648;2022-12-18T03:35:26;101798.03;;;-7.21;68.37
19005;BME280;9635;52.078;8.648;2022-12-18T03:40:43;101789.34;;;-7.18;68.44
19005;BME280;9635;52.078;8.648;2022-12-18T03:45:54;101782.38;;;-7.16;68.25
19005;BME280;9635;52.078;8.648;2022-12-18T03:51:05;101807.84;;;-7.04;68.06
19005;BME280;9635;52.078;8.648;2022-12-18T03:56:12;101801.06;;;-6.90;68.30
19005;BME280;9635;52.078;8.648;2022-12-18T04:01:22;101801.97;;;-6.86;67.74
19005;BME280;9635;52.078;8.648;2022-12-18T04:06:27;101799.28;;;-6.92;67.60
19005;BME280;9635;52.078;8.648;2022-12-18T04:11:32;101797.50;;;-6.95;67.37
19005;BME280;9635;52.078;8.648;2022-12-18T04:16:39;101795.56;;;-7.08;67.31
19005;BME280;9635;52.078;8.648;2022-12-18T04:21:48;101796.25;;;-7.22;67.94
19005;BME280;9635;52.078;8.648;2022-12-18T04:26:52;101801.41;;;-7.25;68.47
19005;BME280;9635;52.078;8.648;2022-12-18T04:32:02;101808.50;;;-7.16;67.89
19005;BME280;9635;52.078;8.648;2022-12-18T04:37:07;101811.13;;;-7.17;68.29
19005;BME280;9635;52.078;8.648;2022-12-18T04:42:10;101812.00;;;-7.17;67.86
19005;BME280;9635;52.078;8.648;2022-12-18T04:47:14;101814.47;;;-7.25;68.20
19005;BME280;9635;52.078;8.648;2022-12-18T04:52:17;101811.09;;;-7.19;68.21
19005;BME280;9635;52.078;8.648;2022-12-18T04:57:20;101810.28;;;-7.15;68.10
19005;BME280;9635;52.078;8.648;2022-12-18T05:02:24;101812.03;;;-7.14;68.07
19005;BME280;9635;52.078;8.648;2022-12-18T05:07:27;101812.06;;;-7.12;68.04
19005;BME280;9635;52.078;8.648;2022-12-18T05:12:31;101808.53;;;-7.14;67.80
19005;BME280;9635;52.078;8.648;2022-12-18T05:17:35;101800.59;;;-7.22;67.98
19005;BME280;9635;52.078;8.648;2022-12-18T05:22:38;101799.69;;;-7.26;67.93
19005;BME280;9635;52.078;8.648;2022-12-18T05:27:41;101785.59;;;-7.37;68.04
19005;BME280;9635;52.078;8.648;2022-12-18T05:32:45;101790.78;;;-7.38;68.21
19005;BME280;9635;52.078;8.648;2022-12-18T05:37:48;101796.72;;;-7.47;67.94
19005;BME280;9635;52.078;8.648;2022-12-18T05:42:51;101794.16;;;-7.44;68.36
19005;BME280;9635;52.078;8.648;2022-12-18T05:47:55;101797.59;;;-7.47;68.37
19005;BME280;9635;52.078;8.648;2022-12-18T05:52:58;101789.84;;;-7.42;68.89
19005;BME280;9635;52.078;8.648;2022-12-18T05:58:01;101792.44;;;-7.44;69.13
19005;BME280;9635;52.078;8.648;2022-12-18T06:03:06;101790.91;;;-7.31;69.01
19005;BME280;9635;52.078;8.648;2022-12-18T06:08:10;101794.38;;;-7.32;68.74
19005;BME280;9635;52.078;8.648;2022-12-18T06:13:13;101799.56;;;-7.33;68.96
19005;BME280;9635;52.078;8.648;2022-12-18T06:18:17;101813.53;;;-7.30;68.22
19005;BME280;9635;52.078;8.648;2022-12-18T06:23:20;101807.38;;;-7.33;68.54
19005;BME280;9635;52.078;8.648;2022-12-18T06:28:23;101816.84;;;-7.42;69.01
19005;BME280;9635;52.078;8.648;2022-12-18T06:33:27;101816.84;;;-7.42;69.06
19005;BME280;9635;52.078;8.648;2022-12-18T06:38:31;101822.16;;;-7.35;69.15
19005;BME280;9635;52.078;8.648;2022-12-18T06:43:34;101823.94;;;-7.34;69.20
19005;BME280;9635;52.078;8.648;2022-12-18T06:48:39;101832.72;;;-7.29;68.89
19005;BME280;9635;52.078;8.648;2022-12-18T06:53:42;101850.13;;;-7.28;68.64
19005;BME280;9635;52.078;8.648;2022-12-18T06:58:45;101850.09;;;-7.30;68.38
19005;BME280;9635;52.078;8.648;2022-12-18T07:03:53;101841.41;;;-7.29;68.07
19005;BME280;9635;52.078;8.648;2022-12-18T07:08:56;101851.00;;;-7.28;68.31
19005;BME280;9635;52.078;8.648;2022-12-18T07:13:59;101866.53;;;-7.35;68.08
19005;BME280;9635;52.078;8.648;2022-12-18T07:19:03;101857.88;;;-7.33;68.57
19005;BME280;9635;52.078;8.648;2022-12-18T07:24:07;101853.44;;;-7.38;68.87
19005;BME280;9635;52.078;8.648;2022-12-18T07:29:09;101835.25;;;-7.34;68.93
19005;BME280;9635;52.078;8.648;2022-12-18T07:34:14;101833.28;;;-7.47;69.07
19005;BME280;9635;52.078;8.648;2022-12-18T07:39:17;101821.28;;;-7.37;69.59
19005;BME280;9635;52.078;8.648;2022-12-18T07:44:20;101826.38;;;-6.84;71.63
19005;BME280;9635;52.078;8.648;2022-12-18T07:49:24;101836.13;;;-5.99;70.05
19005;BME280;9635;52.078;8.648;2022-12-18T07:54:27;101835.44;;;-5.83;67.40
19005;BME280;9635;52.078;8.648;2022-12-18T07:59:30;101828.78;;;-5.46;67.17
19005;BME280;9635;52.078;8.648;2022-12-18T08:04:35;101839.28;;;-5.43;64.97
19005;BME280;9635;52.078;8.648;2022-12-18T08:09:38;101840.13;;;-5.48;64.51
19005;BME280;9635;52.078;8.648;2022-12-18T08:14:40;101839.41;;;-5.26;64.53
19005;BME280;9635;52.078;8.648;2022-12-18T08:19:45;101826.38;;;-5.16;63.39
19005;BME280;9635;52.078;8.648;2022-12-18T08:24:47;101814.28;;;-4.96;63.04
19005;BME280;9635;52.078;8.648;2022-12-18T08:29:50;101808.19;;;-4.93;62.83
19005;BME280;9635;52.078;8.648;2022-12-18T08:34:55;101791.72;;;-4.65;62.44
19005;BME280;9635;52.078;8.648;2022-12-18T08:39:57;101794.44;;;-4.39;61.78
19005;BME280;9635;52.078;8.648;2022-12-18T08:45:00;101797.16;;;-3.82;60.92
19005;BME280;9635;52.078;8.648;2022-12-18T08:50:05;101798.06;;;-3.49;59.44
19005;BME280;9635;52.078;8.648;2022-12-18T08:55:09;101807.69;;;-3.80;59.69
19005;BME280;9635;52.078;8.648;2022-12-18T09:00:13;101794.56;;;-3.47;59.86
19005;BME280;9635;52.078;8.648;2022-12-18T09:05:18;101797.19;;;-3.47;59.70
19005;BME280;9635;52.078;8.648;2022-12-18T09:10:21;101800.66;;;-3.25;59.27
19005;BME280;9635;52.078;8.648;2022-12-18T09:15:24;101796.31;;;-3.44;59.21
19005;BME280;9635;52.078;8.648;2022-12-18T09:20:29;101797.19;;;-3.39;60.10
19005;BME280;9635;52.078;8.648;2022-12-18T09:25:32;101790.16;;;-3.28;59.73
19005;BME280;9635;52.078;8.648;2022-12-18T09:30:37;101791.88;;;-3.16;60.03
19005;BME280;9635;52.078;8.648;2022-12-18T09:35:43;101792.81;;;-3.52;60.15
19005;BME280;9635;52.078;8.648;2022-12-18T09:40:48;101797.19;;;-3.42;61.11
19005;BME280;9635;52.078;8.648;2022-12-18T09:45:53;101797.97;;;-2.94;61.00
19005;BME280;9635;52.078;8.648;2022-12-18T09:51:02;101801.28;;;-2.37;59.97
19005;BME280;9635;52.078;8.648;2022-12-18T09:56:10;101799.06;;;-1.64;58.19
19005;BME280;9635;52.078;8.648;2022-12-18T10:01:18;101779.97;;;-0.95;56.30
19005;BME280;9635;52.078;8.648;2022-12-18T10:06:32;101781.69;;;-0.92;54.71
19005;BME280;9635;52.078;8.648;2022-12-18T10:11:46;101803.44;;;-1.58;55.43
19005;BME280;9635;52.078;8.648;2022-12-18T10:16:57;101797.28;;;-1.62;56.71
19005;BME280;9635;52.078;8.648;2022-12-18T10:22:12;101782.56;;;-0.93;55.74
19005;BME280;9635;52.078;8.648;2022-12-18T10:27:22;101763.19;;;-0.91;55.17
19005;BME280;9635;52.078;8.648;2022-12-18T10:32:29;101731.50;;;-0.88;55.64
19005;BME280;9635;52.078;8.648;2022-12-18T10:37:34;101718.41;;;-0.96;55.90
19005;BME280;9635;52.078;8.648;2022-12-18T10:42:37;101695.19;;;-0.69;54.99
19005;BME280;9635;52.078;8.648;2022-12-18T10:47:42;101707.22;;;-0.48;54.21
19005;BME280;9635;52.078;8.648;2022-12-18T10:52:54;101706.91;;;0.29;53.17
19005;BME280;9635;52.078;8.648;2022-12-18T10:58:13;101714.91;;;0.25;52.33
19005;BME280;9635;52.078;8.648;2022-12-18T11:03:31;101709.78;;;0.17;51.76
19005;BME280;9635;52.078;8.648;2022-12-18T11:08:36;101692.13;;;0.17;52.05
19005;BME280;9635;52.078;8.648;2022-12-18T11:13:40;101671.69;;;0.27;51.64
19005;BME280;9635;52.078;8.648;2022-12-18T11:18:43;101669.91;;;-0.22;52.32
19005;BME280;9635;52.078;8.648;2022-12-18T11:23:49;101648.34;;;-0.52;53.58
19005;BME280;9635;52.078;8.648;2022-12-18T11:29:08;101640.06;;;-0.87;53.80
19005;BME280;9635;52.078;8.648;2022-12-18T11:34:16;101644.91;;;-0.58;53.89
19005;BME280;9635;52.078;8.648;2022-12-18T11:39:36;101635.97;;;-0.48;53.44
19005;BME280;9635;52.078;8.648;2022-12-18T11:44:45;101630.56;;;-1.02;53.54
19005;BME280;9635;52.078;8.648;2022-12-18T11:49:50;101632.72;;;-1.35;54.39
19005;BME280;9635;52.078;8.648;2022-12-18T11:54:58;101617.25;;;-1.64;56.09
19005;BME280;9635;52.078;8.648;2022-12-18T12:00:07;101613.75;;;-1.66;56.65
19005;BME280;9635;52.078;8.648;2022-12-18T12:05:24;101609.97;;;-1.42;55.93
19005;BME280;9635;52.078;8.648;2022-12-18T12:10:42;101607.09;;;-1.22;55.49
19005;BME280;9635;52.078;8.648;2022-12-18T12:15:55;101602.88;;;-1.38;56.07
19005;BME280;9635;52.078;8.648;2022-12-18T12:21:06;101589.84;;;-1.48;55.99
19005;BME280;9635;52.078;8.648;2022-12-18T12:26:17;101578.59;;;-1.65;55.84
19005;BME280;9635;52.078;8.648;2022-12-18T12:31:36;101560.88;;;-1.51;57.08
19005;BME280;9635;52.078;8.648;2022-12-18T12:36:48;101560.97;;;-1.60;56.51
19005;BME280;9635;52.078;8.648;2022-12-18T12:41:57;101576.44;;;-1.31;56.11
19005;BME280;9635;52.078;8.648;2022-12-18T12:47:21;101573.88;;;-1.37;56.25
19005;BME280;9635;52.078;8.648;2022-12-18T12:52:30;101576.81;;;-1.63;56.28
19005;BME280;9635;52.078;8.648;2022-12-18T12:57:38;101584.81;;;-1.69;57.01
19005;BME280;9635;52.078;8.648;2022-12-18T13:02:47;101570.88;;;-1.82;56.98
19005;BME280;9635;52.078;8.648;2022-12-18T13:07:56;101558.59;;;-1.83;56.76
19005;BME280;9635;52.078;8.648;2022-12-18T13:13:09;101548.94;;;-1.84;57.36
19005;BME280;9635;52.078;8.648;2022-12-18T13:18:20;101543.78;;;-1.93;57.73
19005;BME280;9635;52.078;8.648;2022-12-18T13:23:34;101532.31;;;-1.88;57.17
19005;BME280;9635;52.078;8.648;2022-12-18T13:28:53;101528.59;;;-1.71;57.50
19005;BME280;9635;52.078;8.648;2022-12-18T13:34:14;101517.34;;;-1.84;57.56
19005;BME280;9635;52.078;8.648;2022-12-18T13:39:32;101494.56;;;-1.90;57.46
19005;BME280;9635;52.078;8.648;2022-12-18T13:44:40;101490.13;;;-1.85;57.78
19005;BME280;9635;52.078;8.648;2022-12-18T13:49:43;101481.31;;;-1.82;57.42
19005;BME280;9635;52.078;8.648;2022-12-18T13:54:51;101484.84;;;-1.83;57.51
19005;BME280;9635;52.078;8.648;2022-12-18T13:59:59;101485.47;;;-1.63;56.65
19005;BME280;9635;52.078;8.648;2022-12-18T14:05:22;101477.81;;;-1.81;56.75
19005;BME280;9635;52.078;8.648;2022-12-18T14:10:25;101471.50;;;-1.71;56.72
19005;BME280;9635;52.078;8.648;2022-12-18T14:15:50;101484.00;;;-1.85;57.00
19005;BME280;9635;52.078;8.648;2022-12-18T14:20:58;101469.91;;;-1.84;56.69
19005;BME280;9635;52.078;8.648;2022-12-18T14:26:03;101475.00;;;-1.70;56.77
19005;BME280;9635;52.078;8.648;2022-12-18T14:31:17;101481.19;;;-1.73;56.46
19005;BME280;9635;52.078;8.648;2022-12-18T14:36:22;101459.28;;;-1.75;56.62
19005;BME280;9635;52.078;8.648;2022-12-18T14:41:26;101475.28;;;-1.90;56.72
19005;BME280;9635;52.078;8.648;2022-12-18T14:46:34;101464.00;;;-2.00;57.09
19005;BME280;9635;52.078;8.648;2022-12-18T14:51:38;101457.66;;;-1.85;56.51
19005;BME280;9635;52.078;8.648;2022-12-18T14:56:44;101449.78;;;-1.88;56.33
19005;BME280;9635;52.078;8.648;2022-12-18T15:01:56;101446.28;;;-1.89;56.42
19005;BME280;9635;52.078;8.648;2022-12-18T15:07:09;101442.63;;;-1.78;55.97
19005;BME280;9635;52.078;8.648;2022-12-18T15:12:24;101452.34;;;-1.80;55.49
19005;BME280;9635;52.078;8.648;2022-12-18T15:17:29;101433.16;;;-1.92;55.55
19005;BME280;9635;52.078;8.648;2022-12-18T15:22:34;101435.72;;;-1.86;55.72
19005;BME280;9635;52.078;8.648;2022-12-18T15:27:38;101432.16;;;-1.83;55.81
19005;BME280;9635;52.078;8.648;2022-12-18T15:32:46;101413.63;;;-1.77;55.52
19005;BME280;9635;52.078;8.648;2022-12-18T15:37:50;101412.97;;;-1.93;55.79
19005;BME280;9635;52.078;8.648;2022-12-18T15:42:54;101409.22;;;-1.76;55.35
19005;BME280;9635;52.078;8.648;2022-12-18T15:48:21;101394.19;;;-1.68;55.40
19005;BME280;9635;52.078;8.648;2022-12-18T15:53:26;101387.47;;;-1.91;55.60
19005;BME280;9635;52.078;8.648;2022-12-18T15:58:30;101365.41;;;-1.80;55.74
19005;BME280;9635;52.078;8.648;2022-12-18T16:03:35;101373.91;;;-1.62;55.16
19005;BME280;9635;52.078;8.648;2022-12-18T16:08:40;101385.28;;;-1.59;55.50
19005;BME280;9635;52.078;8.648;2022-12-18T16:13:43;101369.63;;;-1.69;55.31
19005;BME280;9635;52.078;8.648;2022-12-18T16:18:47;101357.56;;;-1.87;55.48
19005;BME280;9635;52.078;8.648;2022-12-18T16:23:50;101335.38;;;-1.69;55.46
19005;BME280;9635;52.078;8.648;2022-12-18T16:28:54;101342.28;;;-1.62;55.41
19005;BME280;9635;52.078;8.648;2022-12-18T16:34:13;101336.44;;;-1.82;56.26
19005;BME280;9635;52.078;8.648;2022-12-18T16:39:23;101331.09;;;-1.77;55.87
19005;BME280;9635;52.078;8.648;2022-12-18T16:44:27;101327.41;;;-1.64;55.57
19005;BME280;9635;52.078;8.648;2022-12-18T16:49:31;101330.00;;;-1.63;55.23
19005;BME280;9635;52.078;8.648;2022-12-18T16:54:34;101311.88;;;-1.82;55.93
19005;BME280;9635;52.078;8.648;2022-12-18T16:59:37;101311.69;;;-1.72;55.70
19005;BME280;9635;52.078;8.648;2022-12-18T17:04:42;101298.69;;;-1.84;55.53
19005;BME280;9635;52.078;8.648;2022-12-18T17:09:45;101284.78;;;-1.92;56.02
19005;BME280;9635;52.078;8.648;2022-12-18T17:14:49;101284.34;;;-1.65;55.53
19005;BME280;9635;52.078;8.648;2022-12-18T17:19:54;101283.81;;;-1.87;55.68
19005;BME280;9635;52.078;8.648;2022-12-18T17:24:57;101299.97;;;-1.54;55.23
19005;BME280;9635;52.078;8.648;2022-12-18T17:30:00;101258.19;;;-1.75;55.41
19005;BME280;9635;52.078;8.648;2022-12-18T17:35:05;101261.75;;;-1.79;55.22
19005;BME280;9635;52.078;8.648;2022-12-18T17:40:09;101258.91;;;-1.64;54.77
19005;BME280;9635;52.078;8.648;2022-12-18T17:45:12;101246.59;;;-1.64;54.96
19005;BME280;9635;52.078;8.648;2022-12-18T17:50:17;101249.34;;;-1.71;55.17
19005;BME280;9635;52.078;8.648;2022-12-18T17:55:20;101242.69;;;-1.43;54.51
19005;BME280;9635;52.078;8.648;2022-12-18T18:00:22;101238.56;;;-1.57;54.14
19005;BME280;9635;52.078;8.648;2022-12-18T18:05:27;101237.78;;;-1.63;53.98
19005;BME280;9635;52.078;8.648;2022-12-18T18:10:30;101241.81;;;-1.43;53.69
19005;BME280;9635;52.078;8.648;2022-12-18T18:15:35;101221.75;;;-1.50;54.44
19005;BME280;9635;52.078;8.648;2022-12-18T18:20:42;101220.00;;;-1.50;54.72
19005;BME280;9635;52.078;8.648;2022-12-18T18:25:45;101203.75;;;-1.75;54.62
19005;BME280;9635;52.078;8.648;2022-12-18T18:30:54;101223.66;;;-1.58;54.81
19005;BME280;9635;52.078;8.648;2022-12-18T18:35:58;101239.38;;;-1.54;54.84
19005;BME280;9635;52.078;8.648;2022-12-18T18:41:02;101224.47;;;-1.56;54.72
19005;BME280;9635;52.078;8.648;2022-12-18T18:46:05;101226.47;;;-1.69;55.07
19005;BME280;9635;52.078;8.648;2022-12-18T18:51:11;101231.50;;;-1.55;55.53
19005;BME280;9635;52.078;8.648;2022-12-18T18:56:23;101226.19;;;-1.54;55.18
19005;BME280;9635;52.078;8.648;2022-12-18T19:01:47;101214.41;;;-1.82;55.62
19005;BME280;9635;52.078;8.648;2022-12-18T19:06:52;101235.75;;;-1.48;55.13
19005;BME280;9635;52.078;8.648;2022-12-18T19:11:56;101215.47;;;-1.43;55.51
19005;BME280;9635;52.078;8.648;2022-12-18T19:17:17;101237.34;;;-1.36;55.09
19005;BME280;9635;52.078;8.648;2022-12-18T19:22:24;101244.66;;;-1.54;55.84
19005;BME280;9635;52.078;8.648;2022-12-18T19:27:27;101244.69;;;-1.57;55.62
19005;BME280;9635;52.078;8.648;2022-12-18T19:32:30;101242.94;;;-1.56;56.36
19005;BME280;9635;52.078;8.648;2022-12-18T19:37:34;101232.63;;;-1.69;57.52
19005;BME280;9635;52.078;8.648;2022-12-18T19:42:37;101238.56;;;-1.56;57.66
19005;BME280;9635;52.078;8.648;2022-12-18T19:47:40;101237.66;;;-1.55;58.13
19005;BME280;9635;52.078;8.648;2022-12-18T19:52:44;101250.81;;;-1.55;59.05
19005;BME280;9635;52.078;8.648;2022-12-18T19:57:47;101245.47;;;-1.50;58.98
19005;BME280;9635;52.078;8.648;2022-12-18T20:02:50;101237.09;;;-1.23;58.88
19005;BME280;9635;52.078;8.648;2022-12-18T20:08:00;101246.66;;;-1.19;58.45
19005;BME280;9635;52.078;8.648;2022-12-18T20:13:03;101254.94;;;-1.40;58.32
19005;BME280;9635;52.078;8.648;2022-12-18T20:18:07;101246.47;;;-1.56;59.19
19005;BME280;9635;52.078;8.648;2022-12-18T20:23:12;101231.13;;;-1.87;60.29
19005;BME280;9635;52.078;8.648;2022-12-18T20:28:15;101236.91;;;-2.19;61.27
19005;BME280;9635;52.078;8.648;2022-12-18T20:33:17;101231.53;;;-2.11;61.31
19005;BME280;9635;52.078;8.648;2022-12-18T20:38:22;101230.44;;;-1.98;61.06
19005;BME280;9635;52.078;8.648;2022-12-18T20:43:25;101233.19;;;-2.04;61.07
19005;BME280;9635;52.078;8.648;2022-12-18T20:48:28;101238.19;;;-1.87;61.12
19005;BME280;9635;52.078;8.648;2022-12-18T20:53:34;101233.88;;;-1.93;62.08
19005;BME280;9635;52.078;8.648;2022-12-18T20:58:39;101234.72;;;-1.89;61.98
19005;BME280;9635;52.078;8.648;2022-12-18T21:03:43;101228.81;;;-2.07;62.08
19005;BME280;9635;52.078;8.648;2022-12-18T21:08:48;101233.81;;;-1.88;61.85
19005;BME280;9635;52.078;8.648;2022-12-18T21:13:51;101227.03;;;-2.04;62.40
19005;BME280;9635;52.078;8.648;2022-12-18T21:18:54;101221.03;;;-2.13;62.56
19005;BME280;9635;52.078;8.648;2022-12-18T21:23:59;101210.38;;;-2.05;61.71
19005;BME280;9635;52.078;8.648;2022-12-18T21:29:04;101215.50;;;-1.96;62.14
19005;BME280;9635;52.078;8.648;2022-12-18T21:34:08;101203.28;;;-2.01;62.14
19005;BME280;9635;52.078;8.648;2022-12-18T21:39:14;101203.25;;;-1.98;62.42
19005;BME280;9635;52.078;8.648;2022-12-18T21:44:17;101209.47;;;-2.02;62.92
19005;BME280;9635;52.078;8.648;2022-12-18T21:49:21;101201.22;;;-1.81;62.49
19005;BME280;9635;52.078;8.648;2022-12-18T21:54:27;101194.09;;;-1.76;62.46
19005;BME280;9635;52.078;8.648;2022-12-18T21:59:33;101195.50;;;-1.56;61.81
19005;BME280;9635;52.078;8.648;2022-12-18T22:04:36;101189.78;;;-1.80;62.23
19005;BME280;9635;52.078;8.648;2022-12-18T22:09:41;101192.38;;;-1.78;62.13
19005;BME280;9635;52.078;8.648;2022-12-18T22:14:44;101194.25;;;-1.83;62.18
19005;BME280;9635;52.078;8.648;2022-12-18T22:19:47;101189.72;;;-1.77;62.31
19005;BME280;9635;52.078;8.648;2022-12-18T22:24:52;101179.13;;;-1.74;62.48
19005;BME280;9635;52.078;8.648;2022-12-18T22:29:55;101192.59;;;-1.91;62.55
19005;BME280;9635;52.078;8.648;2022-12-18T22:35:07;101181.56;;;-1.63;62.64
19005;BME280;9635;52.078;8.648;2022-12-18T22:40:19;101176.19;;;-1.57;62.42
19005;BME280;9635;52.078;8.648;2022-12-18T22:45:29;101167.34;;;-1.53;62.54
19005;BME280;9635;52.078;8.648;2022-12-18T22:50:34;101160.47;;;-1.62;63.08
19005;BME280;9635;52.078;8.648;2022-12-18T22:55:38;101147.38;;;-1.66;63.06
19005;BME280;9635;52.078;8.648;2022-12-18T23:00:41;101153.56;;;-1.67;63.61
19005;BME280;9635;52.078;8.648;2022-12-18T23:05:44;101149.78;;;-1.54;63.82
19005;BME280;9635;52.078;8.648;2022-12-18T23:10:52;101151.66;;;-1.60;65.37
19005;BME280;9635;52.078;8.648;2022-12-18T23:15:55;101153.47;;;-1.63;66.59
19005;BME280;9635;52.078;8.648;2022-12-18T23:21:02;101148.13;;;-1.59;67.75
19005;BME280;9635;52.078;8.648;2022-12-18T23:26:09;101145.28;;;-1.49;68.50
19005;BME280;9635;52.078;8.648;2022-12-18T23:31:14;101138.50;;;-1.62;68.97
19005;BME280;9635;52.078;8.648;2022-12-18T23:36:18;101134.06;;;-1.58;69.37
19005;BME280;9635;52.078;8.648;2022-12-18T23:41:24;101130.34;;;-1.48;70.13
19005;BME280;9635;52.078;8.648;2022-12-18T23:46:29;101117.00;;;-1.39;70.41
19005;BME280;9635;52.078;8.648;2022-12-18T23:51:32;101107.97;;;-1.27;70.76
19005;BME280;9635;52.078;8.648;2022-12-18T23:56:41;101100.13;;;-1.30;71.14
